sensor_id;sensor_type;location;lat;lon;timestamp;pressure;altitude;pressure_sealevel;temperature
69590;BMP180;56792;50.644;17.984;2024-03-23T00:54:21;99002.60;;;8.74
69590;BMP180;56792;50.644;17.984;2024-03-23T00:56:52;99005.20;;;8.70
69590;BMP180;56792;50.644;17.984;2024-03-23T00:59:22;99000.80;;;8.70
69590;BMP180;56792;50.644;17.984;2024-03-23T01:01:56;98996.40;;;8.60
69590;BMP180;56792;50.644;17.984;2024-03-23T01:04:27;98998.40;;;8.60
69590;BMP180;56792;50.644;17.984;2024-03-23T01:06:57;99000.40;;;8.60
69590;BMP180;56792;50.644;17.984;2024-03-23T01:09:28;98993.80;;;8.60
69590;BMP180;56792;50.644;17.984;2024-03-23T01:11:58;98992.00;;;8.60
69590;BMP180;56792;50.644;17.984;2024-03-23T01:14:29;98990.00;;;8.60
69590;BMP180;56792;50.644;17.984;2024-03-23T01:16:59;98989.80;;;8.60
69590;BMP180;56792;50.644;17.984;2024-03-23T01:19:30;98984.40;;;8.60
69590;BMP180;56792;50.644;17.984;2024-03-23T01:22:00;98980.40;;;8.60
69590;BMP180;56792;50.644;17.984;2024-03-23T01:24:31;98973.60;;;8.62
69590;BMP180;56792;50.644;17.984;2024-03-23T01:27:01;98971.20;;;8.70
69590;BMP180;56792;50.644;17.984;2024-03-23T01:29:32;98974.20;;;8.70
69590;BMP180;56792;50.644;17.984;2024-03-23T01:32:03;98974.40;;;8.70
69590;BMP180;56792;50.644;17.984;2024-03-23T01:34:34;98975.20;;;8.70
69590;BMP180;56792;50.644;17.984;2024-03-23T01:37:05;98974.60;;;8.70
69590;BMP180;56792;50.644;17.984;2024-03-23T01:39:35;98972.20;;;8.70
69590;BMP180;56792;50.644;17.984;2024-03-23T01:42:06;98968.40;;;8.70
69590;BMP180;56792;50.644;17.984;2024-03-23T01:44:37;98965.80;;;8.70
69590;BMP180;56792;50.644;17.984;2024-03-23T01:47:09;98961.00;;;8.70
69590;BMP180;56792;50.644;17.984;2024-03-23T01:49:40;98960.00;;;8.70
69590;BMP180;56792;50.644;17.984;2024-03-23T01:52:10;98959.20;;;8.60
69590;BMP180;56792;50.644;17.984;2024-03-23T01:54:41;98949.20;;;8.60
69590;BMP180;56792;50.644;17.984;2024-03-23T01:57:12;98953.00;;;8.60
69590;BMP180;56792;50.644;17.984;2024-03-23T01:59:43;98950.60;;;8.50
69590;BMP180;56792;50.644;17.984;2024-03-23T02:02:14;98946.20;;;8.50
69590;BMP180;56792;50.644;17.984;2024-03-23T02:04:47;98942.00;;;8.50
69590;BMP180;56792;50.644;17.984;2024-03-23T02:07:17;98942.00;;;8.50
69590;BMP180;56792;50.644;17.984;2024-03-23T02:09:48;98931.00;;;8.44
69590;BMP180;56792;50.644;17.984;2024-03-23T02:12:19;98922.20;;;8.42
69590;BMP180;56792;50.644;17.984;2024-03-23T02:14:50;98921.20;;;8.48
69590;BMP180;56792;50.644;17.984;2024-03-23T02:17:21;98919.40;;;8.50
69590;BMP180;56792;50.644;17.984;2024-03-23T02:19:51;98911.20;;;8.50
69590;BMP180;56792;50.644;17.984;2024-03-23T02:22:22;98909.40;;;8.50
69590;BMP180;56792;50.644;17.984;2024-03-23T02:24:52;98908.40;;;8.50
69590;BMP180;56792;50.644;17.984;2024-03-23T02:27:23;98892.00;;;8.50
69590;BMP180;56792;50.644;17.984;2024-03-23T02:29:54;98889.40;;;8.50
69590;BMP180;56792;50.644;17.984;2024-03-23T02:32:25;98880.00;;;8.40
69590;BMP180;56792;50.644;17.984;2024-03-23T02:34:55;98872.80;;;8.40
69590;BMP180;56792;50.644;17.984;2024-03-23T02:37:26;98873.00;;;8.34
69590;BMP180;56792;50.644;17.984;2024-03-23T02:39:56;98868.40;;;8.34
69590;BMP180;56792;50.644;17.984;2024-03-23T02:42:27;98861.60;;;8.34
69590;BMP180;56792;50.644;17.984;2024-03-23T02:44:58;98859.20;;;8.30
69590;BMP180;56792;50.644;17.984;2024-03-23T02:47:28;98850.80;;;8.30
69590;BMP180;56792;50.644;17.984;2024-03-23T02:49:59;98845.20;;;8.30
69590;BMP180;56792;50.644;17.984;2024-03-23T02:52:30;98843.60;;;8.22
69590;BMP180;56792;50.644;17.984;2024-03-23T02:55:00;98836.60;;;8.20
69590;BMP180;56792;50.644;17.984;2024-03-23T02:57:32;98826.20;;;8.20
69590;BMP180;56792;50.644;17.984;2024-03-23T03:00:03;98823.60;;;8.14
69590;BMP180;56792;50.644;17.984;2024-03-23T03:02:34;98820.20;;;8.10
69590;BMP180;56792;50.644;17.984;2024-03-23T03:05:07;98814.80;;;8.18
69590;BMP180;56792;50.644;17.984;2024-03-23T03:07:38;98807.80;;;8.20
69590;BMP180;56792;50.644;17.984;2024-03-23T03:10:10;98803.00;;;8.20
69590;BMP180;56792;50.644;17.984;2024-03-23T03:12:41;98800.60;;;8.20
69590;BMP180;56792;50.644;17.984;2024-03-23T03:15:12;98796.00;;;8.20
69590;BMP180;56792;50.644;17.984;2024-03-23T03:17:43;98786.80;;;8.20
69590;BMP180;56792;50.644;17.984;2024-03-23T03:20:14;98777.60;;;8.20
69590;BMP180;56792;50.644;17.984;2024-03-23T03:22:46;98777.00;;;8.20
69590;BMP180;56792;50.644;17.984;2024-03-23T03:25:17;98777.80;;;8.20
69590;BMP180;56792;50.644;17.984;2024-03-23T03:27:48;98776.80;;;8.20
69590;BMP180;56792;50.644;17.984;2024-03-23T03:30:19;98772.20;;;8.20
69590;BMP180;56792;50.644;17.984;2024-03-23T03:32:50;98765.40;;;8.20
69590;BMP180;56792;50.644;17.984;2024-03-23T03:35:21;98761.20;;;8.20
69590;BMP180;56792;50.644;17.984;2024-03-23T03:37:52;98755.60;;;8.20
69590;BMP180;56792;50.644;17.984;2024-03-23T03:40:22;98760.80;;;8.20
69590;BMP180;56792;50.644;17.984;2024-03-23T03:42:53;98753.60;;;8.20
69590;BMP180;56792;50.644;17.984;2024-03-23T03:45:24;98753.20;;;8.20
69590;BMP180;56792;50.644;17.984;2024-03-23T03:47:54;98752.00;;;8.20
69590;BMP180;56792;50.644;17.984;2024-03-23T03:50:25;98745.60;;;8.20
69590;BMP180;56792;50.644;17.984;2024-03-23T03:52:56;98735.20;;;8.20
69590;BMP180;56792;50.644;17.984;2024-03-23T03:55:26;98730.80;;;8.20
69590;BMP180;56792;50.644;17.984;2024-03-23T03:57:57;98726.00;;;8.20
69590;BMP180;56792;50.644;17.984;2024-03-23T04:00:27;98726.80;;;8.20
69590;BMP180;56792;50.644;17.984;2024-03-23T04:02:58;98726.00;;;8.10
69590;BMP180;56792;50.644;17.984;2024-03-23T04:05:28;98718.00;;;8.10
69590;BMP180;56792;50.644;17.984;2024-03-23T04:07:59;98714.40;;;8.10
69590;BMP180;56792;50.644;17.984;2024-03-23T04:10:29;98717.00;;;8.10
69590;BMP180;56792;50.644;17.984;2024-03-23T04:13:00;98708.00;;;8.10
69590;BMP180;56792;50.644;17.984;2024-03-23T04:15:30;98713.20;;;8.10
69590;BMP180;56792;50.644;17.984;2024-03-23T04:18:01;98711.00;;;8.10
69590;BMP180;56792;50.644;17.984;2024-03-23T04:20:31;98707.40;;;8.10
69590;BMP180;56792;50.644;17.984;2024-03-23T04:23:02;98707.80;;;8.10
69590;BMP180;56792;50.644;17.984;2024-03-23T04:25:33;98702.20;;;8.10
69590;BMP180;56792;50.644;17.984;2024-03-23T04:28:04;98708.40;;;8.12
69590;BMP180;56792;50.644;17.984;2024-03-23T04:30:35;98714.60;;;8.20
69590;BMP180;56792;50.644;17.984;2024-03-23T04:33:07;98709.00;;;8.20
69590;BMP180;56792;50.644;17.984;2024-03-23T04:35:37;98705.40;;;8.20
69590;BMP180;56792;50.644;17.984;2024-03-23T04:38:08;98711.00;;;8.20
69590;BMP180;56792;50.644;17.984;2024-03-23T04:40:38;98714.20;;;8.20
69590;BMP180;56792;50.644;17.984;2024-03-23T04:43:09;98716.00;;;8.20
69590;BMP180;56792;50.644;17.984;2024-03-23T04:45:39;98716.80;;;8.20
69590;BMP180;56792;50.644;17.984;2024-03-23T04:48:10;98724.40;;;8.30
69590;BMP180;56792;50.644;17.984;2024-03-23T04:50:41;98731.80;;;8.30
69590;BMP180;56792;50.644;17.984;2024-03-23T04:53:12;98750.40;;;8.30
69590;BMP180;56792;50.644;17.984;2024-03-23T04:55:42;98730.00;;;8.36
69590;BMP180;56792;50.644;17.984;2024-03-23T04:58:13;98727.80;;;8.50
69590;BMP180;56792;50.644;17.984;2024-03-23T05:00:43;98713.60;;;8.50
69590;BMP180;56792;50.644;17.984;2024-03-23T05:03:14;98695.00;;;8.50
69590;BMP180;56792;50.644;17.984;2024-03-23T05:05:44;98681.20;;;8.52
69590;BMP180;56792;50.644;17.984;2024-03-23T05:08:15;98666.80;;;8.56
69590;BMP180;56792;50.644;17.984;2024-03-23T05:10:46;98663.60;;;8.50
69590;BMP180;56792;50.644;17.984;2024-03-23T05:13:16;98670.60;;;8.50
69590;BMP180;56792;50.644;17.984;2024-03-23T05:15:54;98655.60;;;8.50
69590;BMP180;56792;50.644;17.984;2024-03-23T05:18:25;98664.00;;;8.50
69590;BMP180;56792;50.644;17.984;2024-03-23T05:20:59;98661.80;;;8.50
69590;BMP180;56792;50.644;17.984;2024-03-23T05:23:30;98665.00;;;8.50
69590;BMP180;56792;50.644;17.984;2024-03-23T05:26:01;98673.20;;;8.50
69590;BMP180;56792;50.644;17.984;2024-03-23T05:28:32;98664.60;;;8.50
69590;BMP180;56792;50.644;17.984;2024-03-23T05:31:02;98658.40;;;8.50
69590;BMP180;56792;50.644;17.984;2024-03-23T05:33:33;98657.60;;;8.54
69590;BMP180;56792;50.644;17.984;2024-03-23T05:36:05;98656.20;;;8.60
69590;BMP180;56792;50.644;17.984;2024-03-23T05:38:38;98654.20;;;8.60
69590;BMP180;56792;50.644;17.984;2024-03-23T05:41:08;98649.40;;;8.70
69590;BMP180;56792;50.644;17.984;2024-03-23T05:43:39;98650.60;;;8.70
69590;BMP180;56792;50.644;17.984;2024-03-23T05:46:10;98647.20;;;8.70
69590;BMP180;56792;50.644;17.984;2024-03-23T05:48:40;98640.00;;;8.70
69590;BMP180;56792;50.644;17.984;2024-03-23T05:51:11;98639.80;;;8.70
69590;BMP180;56792;50.644;17.984;2024-03-23T05:53:42;98636.80;;;8.80
69590;BMP180;56792;50.644;17.984;2024-03-23T05:56:12;98637.00;;;8.80
69590;BMP180;56792;50.644;17.984;2024-03-23T05:58:43;98635.20;;;8.80
69590;BMP180;56792;50.644;17.984;2024-03-23T06:01:13;98637.40;;;8.80
69590;BMP180;56792;50.644;17.984;2024-03-23T06:03:44;98633.40;;;8.90
69590;BMP180;56792;50.644;17.984;2024-03-23T06:06:14;98632.80;;;8.90
69590;BMP180;56792;50.644;17.984;2024-03-23T06:08:45;98633.20;;;9.00
69590;BMP180;56792;50.644;17.984;2024-03-23T06:11:15;98624.00;;;9.00
69590;BMP180;56792;50.644;17.984;2024-03-23T06:13:46;98628.60;;;9.10
69590;BMP180;56792;50.644;17.984;2024-03-23T06:16:16;98627.40;;;9.10
69590;BMP180;56792;50.644;17.984;2024-03-23T06:18:52;98630.80;;;9.20
69590;BMP180;56792;50.644;17.984;2024-03-23T06:21:24;98629.60;;;9.30
69590;BMP180;56792;50.644;17.984;2024-03-23T06:23:55;98629.60;;;9.40
69590;BMP180;56792;50.644;17.984;2024-03-23T06:26:26;98633.20;;;9.60
69590;BMP180;56792;50.644;17.984;2024-03-23T06:28:57;98634.60;;;9.72
69590;BMP180;56792;50.644;17.984;2024-03-23T06:31:27;98633.20;;;9.90
69590;BMP180;56792;50.644;17.984;2024-03-23T06:33:59;98630.40;;;10.00
69590;BMP180;56792;50.644;17.984;2024-03-23T06:36:31;98623.00;;;10.10
69590;BMP180;56792;50.644;17.984;2024-03-23T06:39:02;98617.40;;;10.20
69590;BMP180;56792;50.644;17.984;2024-03-23T06:41:32;98610.80;;;10.30
69590;BMP180;56792;50.644;17.984;2024-03-23T06:44:03;98603.00;;;10.30
69590;BMP180;56792;50.644;17.984;2024-03-23T06:46:33;98608.60;;;10.40
69590;BMP180;56792;50.644;17.984;2024-03-23T06:49:04;98604.20;;;10.40
69590;BMP180;56792;50.644;17.984;2024-03-23T06:51:35;98598.40;;;10.44
69590;BMP180;56792;50.644;17.984;2024-03-23T06:54:07;98581.80;;;10.50
69590;BMP180;56792;50.644;17.984;2024-03-23T06:56:38;98575.00;;;10.60
69590;BMP180;56792;50.644;17.984;2024-03-23T06:59:08;98578.40;;;10.70
69590;BMP180;56792;50.644;17.984;2024-03-23T07:01:39;98578.00;;;10.90
69590;BMP180;56792;50.644;17.984;2024-03-23T07:04:09;98575.00;;;11.10
69590;BMP180;56792;50.644;17.984;2024-03-23T07:06:46;98576.60;;;11.30
69590;BMP180;56792;50.644;17.984;2024-03-23T07:09:17;98579.20;;;11.40
69590;BMP180;56792;50.644;17.984;2024-03-23T07:11:47;98585.20;;;11.50
69590;BMP180;56792;50.644;17.984;2024-03-23T07:14:18;98585.80;;;11.50
69590;BMP180;56792;50.644;17.984;2024-03-23T07:16:48;98580.00;;;11.60
69590;BMP180;56792;50.644;17.984;2024-03-23T07:19:19;98578.80;;;11.60
69590;BMP180;56792;50.644;17.984;2024-03-23T07:21:50;98578.00;;;11.70
69590;BMP180;56792;50.644;17.984;2024-03-23T07:24:20;98577.20;;;11.70
69590;BMP180;56792;50.644;17.984;2024-03-23T07:26:51;98572.80;;;11.70
69590;BMP180;56792;50.644;17.984;2024-03-23T07:29:23;98570.20;;;11.70
69590;BMP180;56792;50.644;17.984;2024-03-23T07:31:54;98565.60;;;11.70
69590;BMP180;56792;50.644;17.984;2024-03-23T07:34:24;98557.40;;;11.80
69590;BMP180;56792;50.644;17.984;2024-03-23T07:36:55;98557.20;;;11.80
69590;BMP180;56792;50.644;17.984;2024-03-23T07:39:25;98552.20;;;11.90
69590;BMP180;56792;50.644;17.984;2024-03-23T07:41:57;98542.80;;;12.00
69590;BMP180;56792;50.644;17.984;2024-03-23T07:44:27;98538.40;;;12.10
69590;BMP180;56792;50.644;17.984;2024-03-23T07:46:58;98532.60;;;12.20
69590;BMP180;56792;50.644;17.984;2024-03-23T07:49:28;98526.40;;;12.30
69590;BMP180;56792;50.644;17.984;2024-03-23T07:51:59;98521.20;;;12.30
69590;BMP180;56792;50.644;17.984;2024-03-23T07:54:29;98516.40;;;12.40
69590;BMP180;56792;50.644;17.984;2024-03-23T07:57:00;98515.00;;;12.40
69590;BMP180;56792;50.644;17.984;2024-03-23T07:59:31;98511.20;;;12.50
69590;BMP180;56792;50.644;17.984;2024-03-23T08:02:03;98502.60;;;12.60
69590;BMP180;56792;50.644;17.984;2024-03-23T08:04:34;98504.80;;;12.70
69590;BMP180;56792;50.644;17.984;2024-03-23T08:07:04;98503.60;;;12.80
69590;BMP180;56792;50.644;17.984;2024-03-23T08:09:35;98491.40;;;12.80
69590;BMP180;56792;50.644;17.984;2024-03-23T08:12:06;98489.20;;;12.88
69590;BMP180;56792;50.644;17.984;2024-03-23T08:14:37;98487.20;;;12.90
69590;BMP180;56792;50.644;17.984;2024-03-23T08:17:07;98482.00;;;12.90
69590;BMP180;56792;50.644;17.984;2024-03-23T08:19:38;98478.40;;;13.00
69590;BMP180;56792;50.644;17.984;2024-03-23T08:22:08;98477.80;;;13.06
69590;BMP180;56792;50.644;17.984;2024-03-23T08:24:39;98470.40;;;13.20
69590;BMP180;56792;50.644;17.984;2024-03-23T08:27:09;98460.60;;;13.34
69590;BMP180;56792;50.644;17.984;2024-03-23T08:29:40;98458.40;;;13.50
69590;BMP180;56792;50.644;17.984;2024-03-23T08:32:11;98451.20;;;13.60
69590;BMP180;56792;50.644;17.984;2024-03-23T08:34:41;98446.00;;;13.74
69590;BMP180;56792;50.644;17.984;2024-03-23T08:37:12;98434.60;;;13.88
69590;BMP180;56792;50.644;17.984;2024-03-23T08:39:44;98432.20;;;14.00
69590;BMP180;56792;50.644;17.984;2024-03-23T08:42:15;98426.40;;;14.20
69590;BMP180;56792;50.644;17.984;2024-03-23T08:44:45;98414.80;;;14.30
69590;BMP180;56792;50.644;17.984;2024-03-23T08:47:18;98407.60;;;14.50
69590;BMP180;56792;50.644;17.984;2024-03-23T08:49:49;98398.40;;;14.60
69590;BMP180;56792;50.644;17.984;2024-03-23T08:52:19;98397.00;;;14.70
69590;BMP180;56792;50.644;17.984;2024-03-23T08:54:52;98391.80;;;14.70
69590;BMP180;56792;50.644;17.984;2024-03-23T08:57:23;98380.60;;;14.90
69590;BMP180;56792;50.644;17.984;2024-03-23T08:59:53;98378.60;;;15.00
69590;BMP180;56792;50.644;17.984;2024-03-23T09:02:24;98383.20;;;15.10
69590;BMP180;56792;50.644;17.984;2024-03-23T09:04:55;98375.60;;;15.20
69590;BMP180;56792;50.644;17.984;2024-03-23T09:07:25;98363.40;;;15.30
69590;BMP180;56792;50.644;17.984;2024-03-23T09:09:55;98357.60;;;15.20
69590;BMP180;56792;50.644;17.984;2024-03-23T09:12:26;98354.80;;;15.30
69590;BMP180;56792;50.644;17.984;2024-03-23T09:14:57;98339.00;;;15.40
69590;BMP180;56792;50.644;17.984;2024-03-23T09:17:27;98343.40;;;15.60
69590;BMP180;56792;50.644;17.984;2024-03-23T09:19:58;98330.20;;;15.80
69590;BMP180;56792;50.644;17.984;2024-03-23T09:22:28;98326.60;;;15.80
69590;BMP180;56792;50.644;17.984;2024-03-23T09:24:59;98317.00;;;15.80
69590;BMP180;56792;50.644;17.984;2024-03-23T09:27:29;98313.60;;;15.80
69590;BMP180;56792;50.644;17.984;2024-03-23T09:30:00;98312.00;;;15.80
69590;BMP180;56792;50.644;17.984;2024-03-23T09:32:30;98311.00;;;15.70
69590;BMP180;56792;50.644;17.984;2024-03-23T09:35:01;98305.80;;;15.60
69590;BMP180;56792;50.644;17.984;2024-03-23T09:37:31;98300.80;;;15.60
69590;BMP180;56792;50.644;17.984;2024-03-23T09:40:01;98290.40;;;15.70
69590;BMP180;56792;50.644;17.984;2024-03-23T09:42:32;98289.00;;;15.70
69590;BMP180;56792;50.644;17.984;2024-03-23T09:45:04;98272.20;;;15.74
69590;BMP180;56792;50.644;17.984;2024-03-23T09:47:55;98274.40;;;15.96
69590;BMP180;56792;50.644;17.984;2024-03-23T09:50:26;98265.20;;;16.20
69590;BMP180;56792;50.644;17.984;2024-03-23T09:52:56;98268.60;;;16.30
69590;BMP180;56792;50.644;17.984;2024-03-23T09:55:27;98273.00;;;16.30
69590;BMP180;56792;50.644;17.984;2024-03-23T09:57:57;98267.20;;;16.52
69590;BMP180;56792;50.644;17.984;2024-03-23T10:00:28;98252.40;;;16.80
69590;BMP180;56792;50.644;17.984;2024-03-23T10:02:59;98248.60;;;16.80
69590;BMP180;56792;50.644;17.984;2024-03-23T10:05:32;98249.60;;;16.70
69590;BMP180;56792;50.644;17.984;2024-03-23T10:08:20;98251.40;;;16.60
69590;BMP180;56792;50.644;17.984;2024-03-23T10:10:50;98231.40;;;16.60
69590;BMP180;56792;50.644;17.984;2024-03-23T10:13:30;98229.20;;;16.78
69590;BMP180;56792;50.644;17.984;2024-03-23T10:16:02;98219.40;;;16.90
69590;BMP180;56792;50.644;17.984;2024-03-23T10:18:32;98212.60;;;16.94
69590;BMP180;56792;50.644;17.984;2024-03-23T10:21:11;98212.80;;;17.10
69590;BMP180;56792;50.644;17.984;2024-03-23T10:23:43;98206.40;;;17.30
69590;BMP180;56792;50.644;17.984;2024-03-23T10:26:20;98204.80;;;17.50
69590;BMP180;56792;50.644;17.984;2024-03-23T10:28:57;98198.40;;;17.60
69590;BMP180;56792;50.644;17.984;2024-03-23T10:31:30;98195.60;;;17.80
69590;BMP180;56792;50.644;17.984;2024-03-23T10:34:02;98186.00;;;17.90
69590;BMP180;56792;50.644;17.984;2024-03-23T10:36:34;98171.20;;;18.00
69590;BMP180;56792;50.644;17.984;2024-03-23T10:39:06;98171.60;;;18.10
69590;BMP180;56792;50.644;17.984;2024-03-23T10:41:38;98161.40;;;18.22
69590;BMP180;56792;50.644;17.984;2024-03-23T10:44:10;98156.20;;;18.36
69590;BMP180;56792;50.644;17.984;2024-03-23T10:46:41;98146.00;;;18.50
69590;BMP180;56792;50.644;17.984;2024-03-23T10:49:11;98129.40;;;18.68
69590;BMP180;56792;50.644;17.984;2024-03-23T10:51:42;98122.80;;;18.90
69590;BMP180;56792;50.644;17.984;2024-03-23T10:54:13;98123.20;;;19.00
69590;BMP180;56792;50.644;17.984;2024-03-23T10:56:44;98117.00;;;19.10
69590;BMP180;56792;50.644;17.984;2024-03-23T10:59:17;98118.00;;;19.20
69590;BMP180;56792;50.644;17.984;2024-03-23T11:01:58;98110.40;;;19.34
69590;BMP180;56792;50.644;17.984;2024-03-23T11:04:37;98101.20;;;19.40
69590;BMP180;56792;50.644;17.984;2024-03-23T11:07:33;98094.40;;;19.50
69590;BMP180;56792;50.644;17.984;2024-03-23T11:10:28;98078.60;;;19.68
69590;BMP180;56792;50.644;17.984;2024-03-23T11:13:00;98069.40;;;19.70
69590;BMP180;56792;50.644;17.984;2024-03-23T11:15:50;98069.60;;;19.90
69590;BMP180;56792;50.644;17.984;2024-03-23T11:18:24;98061.80;;;19.90
69590;BMP180;56792;50.644;17.984;2024-03-23T11:20:54;98054.20;;;20.04
69590;BMP180;56792;50.644;17.984;2024-03-23T11:23:31;98055.60;;;20.30
69590;BMP180;56792;50.644;17.984;2024-03-23T11:26:01;98054.80;;;20.50
69590;BMP180;56792;50.644;17.984;2024-03-23T11:28:33;98051.60;;;20.60
69590;BMP180;56792;50.644;17.984;2024-03-23T11:31:10;98044.80;;;20.44
69590;BMP180;56792;50.644;17.984;2024-03-23T11:33:41;98040.80;;;20.32
69590;BMP180;56792;50.644;17.984;2024-03-23T11:36:11;98027.80;;;20.48
69590;BMP180;56792;50.644;17.984;2024-03-23T11:38:48;98013.80;;;20.60
69590;BMP180;56792;50.644;17.984;2024-03-23T11:41:19;98008.00;;;20.70
69590;BMP180;56792;50.644;17.984;2024-03-23T11:43:50;98005.20;;;20.88
69590;BMP180;56792;50.644;17.984;2024-03-23T11:46:25;97985.80;;;21.00
69590;BMP180;56792;50.644;17.984;2024-03-23T11:48:56;97969.40;;;21.10
69590;BMP180;56792;50.644;17.984;2024-03-23T11:51:27;97962.80;;;21.00
69590;BMP180;56792;50.644;17.984;2024-03-23T11:54:11;97955.40;;;21.00
69590;BMP180;56792;50.644;17.984;2024-03-23T11:56:41;97955.20;;;21.20
69590;BMP180;56792;50.644;17.984;2024-03-23T11:59:35;97951.00;;;21.10
69590;BMP180;56792;50.644;17.984;2024-03-23T12:02:10;97941.20;;;21.10
69590;BMP180;56792;50.644;17.984;2024-03-23T12:04:43;97927.80;;;20.80
69590;BMP180;56792;50.644;17.984;2024-03-23T12:07:16;97930.80;;;20.40
69590;BMP180;56792;50.644;17.984;2024-03-23T12:10:01;97933.20;;;20.10
69590;BMP180;56792;50.644;17.984;2024-03-23T12:12:33;97927.20;;;19.80
69590;BMP180;56792;50.644;17.984;2024-03-23T12:15:07;97927.20;;;19.50
69590;BMP180;56792;50.644;17.984;2024-03-23T12:17:38;97942.80;;;19.26
69590;BMP180;56792;50.644;17.984;2024-03-23T12:20:10;97941.80;;;19.00
69590;BMP180;56792;50.644;17.984;2024-03-23T12:22:40;97962.00;;;18.78
69590;BMP180;56792;50.644;17.984;2024-03-23T12:25:11;97984.60;;;18.56
69590;BMP180;56792;50.644;17.984;2024-03-23T12:27:41;98022.60;;;18.30
69590;BMP180;56792;50.644;17.984;2024-03-23T12:30:14;98080.20;;;17.58
69590;BMP180;56792;50.644;17.984;2024-03-23T12:32:44;98111.20;;;16.56
69590;BMP180;56792;50.644;17.984;2024-03-23T12:35:15;98114.00;;;15.54
69590;BMP180;56792;50.644;17.984;2024-03-23T12:37:46;98114.80;;;14.84
69590;BMP180;56792;50.644;17.984;2024-03-23T12:40:16;98123.00;;;14.30
69590;BMP180;56792;50.644;17.984;2024-03-23T12:42:47;98127.40;;;14.00
69590;BMP180;56792;50.644;17.984;2024-03-23T12:45:17;98141.40;;;13.74
69590;BMP180;56792;50.644;17.984;2024-03-23T12:47:48;98146.40;;;13.60
69590;BMP180;56792;50.644;17.984;2024-03-23T12:50:19;98157.80;;;13.42
69590;BMP180;56792;50.644;17.984;2024-03-23T12:52:50;98159.40;;;13.40
69590;BMP180;56792;50.644;17.984;2024-03-23T12:55:20;98152.00;;;13.30
69590;BMP180;56792;50.644;17.984;2024-03-23T12:57:51;98155.60;;;13.30
69590;BMP180;56792;50.644;17.984;2024-03-23T13:00:22;98159.60;;;13.30
69590;BMP180;56792;50.644;17.984;2024-03-23T13:02:52;98164.20;;;13.20
69590;BMP180;56792;50.644;17.984;2024-03-23T13:05:23;98166.40;;;13.20
69590;BMP180;56792;50.644;17.984;2024-03-23T13:07:53;98166.00;;;13.16
69590;BMP180;56792;50.644;17.984;2024-03-23T13:10:24;98153.80;;;13.10
69590;BMP180;56792;50.644;17.984;2024-03-23T13:12:54;98144.80;;;13.06
69590;BMP180;56792;50.644;17.984;2024-03-23T13:15:25;98145.00;;;13.00
69590;BMP180;56792;50.644;17.984;2024-03-23T13:17:55;98160.80;;;13.00
69590;BMP180;56792;50.644;17.984;2024-03-23T13:20:26;98157.80;;;12.90
69590;BMP180;56792;50.644;17.984;2024-03-23T13:22:56;98127.20;;;12.80
69590;BMP180;56792;50.644;17.984;2024-03-23T13:25:27;98142.60;;;12.80
69590;BMP180;56792;50.644;17.984;2024-03-23T13:27:58;98143.40;;;12.70
69590;BMP180;56792;50.644;17.984;2024-03-23T13:30:28;98117.40;;;12.58
69590;BMP180;56792;50.644;17.984;2024-03-23T13:32:59;98111.40;;;12.50
69590;BMP180;56792;50.644;17.984;2024-03-23T13:35:30;98158.20;;;12.44
69590;BMP180;56792;50.644;17.984;2024-03-23T13:38:01;98147.60;;;12.40
69590;BMP180;56792;50.644;17.984;2024-03-23T13:40:31;98141.60;;;12.30
69590;BMP180;56792;50.644;17.984;2024-03-23T13:43:02;98140.20;;;12.24
69590;BMP180;56792;50.644;17.984;2024-03-23T13:45:33;98142.60;;;12.20
69590;BMP180;56792;50.644;17.984;2024-03-23T13:48:07;98153.80;;;12.18
69590;BMP180;56792;50.644;17.984;2024-03-23T13:50:37;98146.00;;;12.10
69590;BMP180;56792;50.644;17.984;2024-03-23T13:53:08;98148.80;;;12.10
69590;BMP180;56792;50.644;17.984;2024-03-23T13:55:43;98144.80;;;12.00
69590;BMP180;56792;50.644;17.984;2024-03-23T13:58:16;98120.40;;;12.00
69590;BMP180;56792;50.644;17.984;2024-03-23T14:00:46;98121.20;;;12.00
69590;BMP180;56792;50.644;17.984;2024-03-23T14:03:17;98121.60;;;12.00
69590;BMP180;56792;50.644;17.984;2024-03-23T14:05:47;98124.60;;;12.00
69590;BMP180;56792;50.644;17.984;2024-03-23T14:08:18;98132.20;;;12.10
69590;BMP180;56792;50.644;17.984;2024-03-23T14:10:51;98141.00;;;12.12
69590;BMP180;56792;50.644;17.984;2024-03-23T14:13:21;98148.80;;;12.20
69590;BMP180;56792;50.644;17.984;2024-03-23T14:15:56;98147.00;;;12.20
69590;BMP180;56792;50.644;17.984;2024-03-23T14:18:27;98148.20;;;12.30
69590;BMP180;56792;50.644;17.984;2024-03-23T14:21:01;98154.20;;;12.30
69590;BMP180;56792;50.644;17.984;2024-03-23T14:23:33;98147.20;;;12.30
69590;BMP180;56792;50.644;17.984;2024-03-23T14:26:03;98149.60;;;12.30
69590;BMP180;56792;50.644;17.984;2024-03-23T14:28:34;98139.00;;;12.30
69590;BMP180;56792;50.644;17.984;2024-03-23T14:31:05;98142.80;;;12.30
69590;BMP180;56792;50.644;17.984;2024-03-23T14:33:40;98162.00;;;12.30
69590;BMP180;56792;50.644;17.984;2024-03-23T14:36:15;98173.00;;;12.30
69590;BMP180;56792;50.644;17.984;2024-03-23T14:38:50;98179.00;;;12.30
69590;BMP180;56792;50.644;17.984;2024-03-23T14:41:21;98175.40;;;12.20
69590;BMP180;56792;50.644;17.984;2024-03-23T14:43:52;98220.20;;;12.20
69590;BMP180;56792;50.644;17.984;2024-03-23T14:46:23;98221.20;;;12.10
69590;BMP180;56792;50.644;17.984;2024-03-23T14:48:54;98245.60;;;11.90
69590;BMP180;56792;50.644;17.984;2024-03-23T14:51:24;98260.80;;;11.74
69590;BMP180;56792;50.644;17.984;2024-03-23T14:53:56;98266.60;;;11.60
69590;BMP180;56792;50.644;17.984;2024-03-23T14:56:27;98279.00;;;11.40
69590;BMP180;56792;50.644;17.984;2024-03-23T14:58:57;98303.40;;;11.22
69590;BMP180;56792;50.644;17.984;2024-03-23T15:01:28;98287.60;;;10.86
69590;BMP180;56792;50.644;17.984;2024-03-23T15:03:58;98278.80;;;10.60
69590;BMP180;56792;50.644;17.984;2024-03-23T15:06:29;98303.00;;;10.40
69590;BMP180;56792;50.644;17.984;2024-03-23T15:08:59;98306.80;;;10.14
69590;BMP180;56792;50.644;17.984;2024-03-23T15:11:30;98316.80;;;9.90
69590;BMP180;56792;50.644;17.984;2024-03-23T15:14:01;98325.40;;;9.60
69590;BMP180;56792;50.644;17.984;2024-03-23T15:16:32;98319.00;;;9.30
69590;BMP180;56792;50.644;17.984;2024-03-23T15:19:03;98320.00;;;9.20